createdAt,value
2022-11-23T00:01:19.284Z,1.30
2022-11-23T00:03:48.708Z,0.93
2022-11-23T00:06:18.584Z,1.13
2022-11-23T00:08:46.828Z,0.98
2022-11-23T00:11:14.763Z,1.30
2022-11-23T00:13:43.034Z,1.08
2022-11-23T00:16:15.146Z,1.15
2022-11-23T00:18:44.323Z,1.00
2022-11-23T00:21:14.207Z,1.08
2022-11-23T00:23:44.078Z,1.30
2022-11-23T00:26:14.007Z,1.20
2022-11-23T00:28:42.103Z,0.93
2022-11-23T00:31:11.610Z,1.10
2022-11-23T00:33:40.429Z,1.10
2022-11-23T00:36:15.266Z,1.10
2022-11-23T00:38:44.687Z,0.90
2022-11-23T00:41:14.930Z,1.33
2022-11-23T00:43:43.622Z,1.00
2022-11-23T00:46:16.199Z,0.93
2022-11-23T00:48:44.369Z,1.75
2022-11-23T00:51:15.298Z,1.20
2022-11-23T00:53:43.587Z,1.20
2022-11-23T00:56:13.904Z,1.10
2022-11-23T00:58:43.890Z,1.10
2022-11-23T01:01:14.828Z,1.38
2022-11-23T01:03:44.796Z,1.13
2022-11-23T01:06:16.424Z,0.90
2022-11-23T01:08:49.740Z,1.10
2022-11-23T01:11:18.534Z,1.20
2022-11-23T01:13:46.807Z,2.05
2022-11-23T01:16:23.461Z,1.45
2022-11-23T01:18:53.764Z,1.35
2022-11-23T01:21:27.748Z,1.30
2022-11-23T01:23:55.524Z,1.35
2022-11-23T01:26:25.258Z,1.07
2022-11-23T01:28:53.012Z,1.30
2022-11-23T01:31:24.589Z,1.38
2022-11-23T01:33:54.382Z,1.20
2022-11-23T01:36:26.849Z,1.80
2022-11-23T01:38:56.696Z,1.17
2022-11-23T01:41:26.341Z,1.33
2022-11-23T01:43:55.205Z,1.20
2022-11-23T01:46:23.403Z,1.17
2022-11-23T01:48:54.239Z,1.40
2022-11-23T01:51:28.686Z,1.10
2022-11-23T01:54:03.717Z,0.98
2022-11-23T01:56:34.741Z,1.10
2022-11-23T01:59:16.661Z,1.40
2022-11-23T02:01:44.642Z,1.40
2022-11-23T02:04:16.475Z,1.23
2022-11-23T02:06:47.788Z,1.40
2022-11-23T02:09:18.010Z,1.27
2022-11-23T02:11:46.851Z,0.98
2022-11-23T02:17:55.862Z,1.00
2022-11-23T02:20:23.956Z,1.37
2022-11-23T02:23:03.377Z,0.90
2022-11-23T02:25:39.668Z,1.20
2022-11-23T02:28:09.349Z,1.30
2022-11-23T02:30:37.928Z,1.38
2022-11-23T02:33:06.305Z,2.35
2022-11-23T02:35:34.210Z,1.45
2022-11-23T02:38:03.789Z,1.30
2022-11-23T02:40:36.631Z,1.48
2022-11-23T02:43:04.420Z,1.07
2022-11-23T02:45:39.243Z,1.10
2022-11-23T02:48:07.611Z,1.23
2022-11-23T02:50:35.371Z,1.23
2022-11-23T02:53:04.008Z,1.23
2022-11-23T02:55:35.534Z,1.27
2022-11-23T02:58:03.140Z,1.40
2022-11-23T03:00:31.700Z,1.63
2022-11-23T03:03:02.292Z,1.30
2022-11-23T03:05:30.059Z,1.42
2022-11-23T03:08:00.108Z,1.65
2022-11-23T03:10:28.094Z,1.80
2022-11-23T03:12:57.823Z,1.27
2022-11-23T03:15:26.020Z,1.50
2022-11-23T03:17:54.476Z,1.60
2022-11-23T03:20:26.860Z,1.43
2022-11-23T03:22:54.666Z,1.42
2022-11-23T03:25:24.176Z,1.40
2022-11-23T03:27:53.329Z,1.67
2022-11-23T03:30:22.089Z,1.50
2022-11-23T03:32:49.875Z,1.77
2022-11-23T03:35:18.637Z,1.40
2022-11-23T03:37:48.829Z,1.50
2022-11-23T03:40:16.751Z,1.35
2022-11-23T03:42:44.445Z,1.42
2022-11-23T03:45:12.995Z,1.40
2022-11-23T03:47:40.756Z,1.63
2022-11-23T03:50:11.356Z,1.30
2022-11-23T03:52:40.040Z,1.35
2022-11-23T03:55:11.466Z,1.60
2022-11-23T03:57:40.124Z,1.60
2022-11-23T04:00:09.452Z,1.70
2022-11-23T04:02:37.068Z,1.50
2022-11-23T04:05:05.440Z,2.10
2022-11-23T04:07:33.167Z,1.42
2022-11-23T04:10:01.485Z,1.23
2022-11-23T04:12:31.477Z,1.30
2022-11-23T04:15:00.018Z,1.23
2022-11-23T04:17:29.471Z,1.45
2022-11-23T04:19:58.266Z,1.80
2022-11-23T04:22:25.964Z,1.60
2022-11-23T04:24:56.117Z,1.13
2022-11-23T04:27:23.814Z,1.33
2022-11-23T04:29:52.929Z,1.40
2022-11-23T04:32:20.558Z,1.30
2022-11-23T04:34:50.473Z,1.15
2022-11-23T04:37:19.406Z,1.30
2022-11-23T04:39:47.878Z,1.33
2022-11-23T04:42:15.574Z,1.80
2022-11-23T04:44:44.066Z,1.30
2022-11-23T04:47:13.513Z,1.40
2022-11-23T04:49:41.170Z,1.58
2022-11-23T04:52:09.598Z,1.65
2022-11-23T04:54:38.399Z,1.35
2022-11-23T04:57:07.055Z,1.42
2022-11-23T04:59:34.843Z,1.40
2022-11-23T05:02:02.939Z,1.50
2022-11-23T05:04:34.385Z,1.73
2022-11-23T05:07:02.876Z,1.67
2022-11-23T05:09:31.187Z,1.45
2022-11-23T05:12:00.056Z,1.92
2022-11-23T05:14:27.871Z,1.67
2022-11-23T05:16:56.194Z,1.63
2022-11-23T05:19:23.951Z,1.55
2022-11-23T05:21:54.417Z,1.70
2022-11-23T05:24:22.797Z,1.90
2022-11-23T05:26:55.960Z,1.77
2022-11-23T05:29:23.903Z,2.15
2022-11-23T05:31:52.191Z,2.00
2022-11-23T05:34:19.804Z,2.40
2022-11-23T05:36:49.837Z,2.20
2022-11-23T05:39:20.102Z,2.08
2022-11-23T05:41:48.080Z,2.30
2022-11-23T05:44:16.272Z,2.50
2022-11-23T05:46:43.875Z,3.17
2022-11-23T05:49:13.461Z,2.35
2022-11-23T05:51:41.210Z,2.33
2022-11-23T05:54:09.530Z,2.17
2022-11-23T05:56:40.630Z,2.40
2022-11-23T05:59:10.052Z,2.13
2022-11-23T06:01:38.064Z,2.60
2022-11-23T06:04:07.337Z,2.47
2022-11-23T06:06:35.798Z,2.63
2022-11-23T06:09:08.730Z,2.63
2022-11-23T06:11:38.182Z,2.95
2022-11-23T06:14:12.755Z,3.00
2022-11-23T06:16:42.198Z,2.80
2022-11-23T06:19:09.802Z,2.40
2022-11-23T06:21:38.350Z,3.08
2022-11-23T06:24:07.478Z,3.22
2022-11-23T06:26:36.273Z,2.80
2022-11-23T06:29:04.254Z,2.72
2022-11-23T06:31:33.478Z,2.03
2022-11-23T06:34:01.440Z,2.20
2022-11-23T06:36:29.179Z,2.30
2022-11-23T06:38:56.848Z,2.20
2022-11-23T06:41:32.050Z,2.17
2022-11-23T06:44:00.187Z,2.22
2022-11-23T06:46:27.794Z,2.50
2022-11-23T06:48:57.027Z,1.90
2022-11-23T06:51:26.083Z,2.53
2022-11-23T06:53:53.941Z,1.83
2022-11-23T06:56:21.977Z,2.10
2022-11-23T06:58:49.858Z,2.30
2022-11-23T07:02:19.179Z,1.90
2022-11-23T07:04:48.214Z,1.75
2022-11-23T07:07:16.084Z,1.80
2022-11-23T07:09:43.705Z,1.80
2022-11-23T07:12:13.187Z,1.95
2022-11-23T07:14:41.418Z,1.90
2022-11-23T07:17:11.745Z,1.88
2022-11-23T07:19:42.022Z,2.20
2022-11-23T07:22:14.546Z,2.13
2022-11-23T07:24:46.531Z,2.05
2022-11-23T07:27:14.965Z,2.22
2022-11-23T07:29:44.304Z,2.10
2022-11-23T07:32:14.651Z,2.45
2022-11-23T07:34:42.286Z,2.20
2022-11-23T07:37:10.068Z,2.35
2022-11-23T07:42:33.927Z,2.40
2022-11-23T07:46:03.855Z,2.08
2022-11-23T07:48:36.124Z,1.60
2022-11-23T07:51:04.309Z,1.67
2022-11-23T07:53:32.182Z,2.55
2022-11-23T07:56:01.129Z,1.70
2022-11-23T07:58:29.107Z,2.38
2022-11-23T08:00:57.020Z,1.60
2022-11-23T08:03:28.631Z,2.10
2022-11-23T08:05:56.845Z,1.77
2022-11-23T08:08:24.736Z,1.90
2022-11-23T08:10:54.113Z,1.90
2022-11-23T08:13:23.898Z,2.10
2022-11-23T08:15:55.238Z,1.95
2022-11-23T08:18:24.265Z,1.77
2022-11-23T08:20:51.809Z,1.73
2022-11-23T08:23:19.448Z,1.93
2022-11-23T08:25:47.399Z,1.70
2022-11-23T08:28:15.132Z,1.98
2022-11-23T08:30:44.397Z,1.98
2022-11-23T08:33:13.918Z,1.80
2022-11-23T08:35:42.760Z,1.75
2022-11-23T08:38:11.345Z,1.63
2022-11-23T08:40:39.770Z,1.85
2022-11-23T08:43:08.295Z,1.50
2022-11-23T08:45:35.928Z,1.90
2022-11-23T08:48:06.316Z,1.85
2022-11-23T08:50:35.392Z,1.45
2022-11-23T08:53:03.051Z,2.25
2022-11-23T08:55:30.992Z,1.90
2022-11-23T08:57:59.922Z,1.65
2022-11-23T09:00:28.513Z,1.40
2022-11-23T09:02:59.081Z,1.70
2022-11-23T09:05:28.466Z,1.27
2022-11-23T09:07:56.122Z,1.43
2022-11-23T09:10:23.974Z,1.88
2022-11-23T09:12:52.826Z,1.60
2022-11-23T09:15:20.540Z,1.55
2022-11-23T09:17:48.236Z,1.80
2022-11-23T09:20:16.981Z,1.40
2022-11-23T09:22:51.949Z,1.80
2022-11-23T09:25:19.989Z,1.80
2022-11-23T09:27:48.889Z,1.37
2022-11-23T09:30:18.177Z,1.42
2022-11-23T09:32:45.811Z,1.50
2022-11-23T09:35:13.380Z,1.60
2022-11-23T09:37:41.019Z,1.23
2022-11-23T09:40:13.273Z,1.30
2022-11-23T09:42:47.454Z,1.30
2022-11-23T09:45:20.429Z,1.30
2022-11-23T09:48:00.931Z,1.27
2022-11-23T09:50:30.347Z,1.60
2022-11-23T09:52:57.919Z,1.40
2022-11-23T09:55:35.541Z,1.17
2022-11-23T09:58:05.599Z,1.50
2022-11-23T10:00:38.793Z,1.30
2022-11-23T10:03:06.851Z,1.33
2022-11-23T10:05:39.562Z,1.48
2022-11-23T10:08:12.943Z,1.20
2022-11-23T10:10:45.050Z,1.35
2022-11-23T10:13:28.723Z,1.33
2022-11-23T10:16:08.014Z,1.55
2022-11-23T10:18:43.417Z,1.20
2022-11-23T10:21:18.234Z,1.10
2022-11-23T10:23:56.286Z,1.30
2022-11-23T10:26:29.619Z,1.23
2022-11-23T10:28:58.810Z,2.00
2022-11-23T10:31:27.353Z,1.10
2022-11-23T10:33:57.834Z,1.15
2022-11-23T10:36:25.449Z,1.70
2022-11-23T10:38:56.755Z,1.40
2022-11-23T10:41:24.530Z,1.70
2022-11-23T10:43:57.725Z,1.40
2022-11-23T10:46:43.458Z,1.40
2022-11-23T10:49:17.132Z,1.35
2022-11-23T10:51:53.542Z,1.15
2022-11-23T10:54:27.628Z,1.30
2022-11-23T10:56:56.401Z,1.30
2022-11-23T10:59:35.410Z,1.50
2022-11-23T11:02:12.685Z,1.43
2022-11-23T11:04:41.467Z,1.20
2022-11-23T11:07:29.873Z,1.50
2022-11-23T11:09:59.449Z,1.23
2022-11-23T11:12:28.966Z,2.03
2022-11-23T11:15:10.816Z,1.52
2022-11-23T11:17:41.098Z,1.30
2022-11-23T11:20:25.081Z,1.60
2022-11-23T11:22:52.768Z,1.08
2022-11-23T11:25:29.651Z,1.25
2022-11-23T11:27:58.356Z,1.52
2022-11-23T11:30:31.372Z,2.28
2022-11-23T11:33:04.965Z,1.35
2022-11-23T11:35:34.925Z,1.25
2022-11-23T11:38:05.805Z,1.52
2022-11-23T11:40:35.622Z,1.33
2022-11-23T11:43:05.665Z,1.40
2022-11-23T11:45:38.942Z,2.17
2022-11-23T11:48:12.130Z,1.60
2022-11-23T11:50:44.098Z,1.50
2022-11-23T11:53:14.983Z,1.52
2022-11-23T11:55:49.791Z,1.55
2022-11-23T11:58:18.298Z,1.60
2022-11-23T12:00:48.813Z,1.80
2022-11-23T12:03:23.875Z,1.50
2022-11-23T12:05:53.077Z,1.58
2022-11-23T12:08:24.893Z,2.17
2022-11-23T12:10:54.117Z,1.52
2022-11-23T12:13:24.007Z,1.50
2022-11-23T12:15:59.451Z,1.77
2022-11-23T12:18:36.693Z,1.55
2022-11-23T12:21:06.813Z,1.75
2022-11-23T12:23:44.875Z,1.63
2022-11-23T12:26:20.524Z,1.55
2022-11-23T12:29:12.605Z,1.65
2022-11-23T12:31:45.219Z,1.58
2022-11-23T12:34:25.954Z,1.70
2022-11-23T12:37:13.566Z,1.57
2022-11-23T12:39:59.643Z,1.45
2022-11-23T12:42:33.479Z,1.58
2022-11-23T12:45:10.978Z,1.35
2022-11-23T12:47:47.594Z,1.47
2022-11-23T12:50:23.157Z,1.30
2022-11-23T12:53:01.140Z,1.50
2022-11-23T12:55:34.087Z,1.10
2022-11-23T12:58:05.952Z,1.17
2022-11-23T13:00:37.652Z,1.75
2022-11-23T13:03:28.431Z,1.40
2022-11-23T13:06:27.315Z,1.95
2022-11-23T13:09:17.905Z,1.52
2022-11-23T13:12:02.444Z,1.30
2022-11-23T13:14:35.625Z,1.10
2022-11-23T13:17:13.001Z,2.10
2022-11-23T13:20:05.543Z,1.60
2022-11-23T13:22:34.390Z,1.42
2022-11-23T13:25:15.089Z,1.93
2022-11-23T13:27:44.578Z,1.40
2022-11-23T13:30:25.184Z,1.23
2022-11-23T13:32:58.656Z,1.53
2022-11-23T13:35:56.913Z,1.20
2022-11-23T13:38:38.618Z,1.13
2022-11-23T13:41:55.448Z,1.20
2022-11-23T13:44:25.701Z,1.55
2022-11-23T13:47:05.973Z,1.40
2022-11-23T13:49:36.908Z,1.20
2022-11-23T13:52:36.295Z,1.80
2022-11-23T13:55:21.973Z,1.17
2022-11-23T13:58:23.883Z,1.40
2022-11-23T14:00:53.505Z,1.57
2022-11-23T14:03:52.065Z,1.35
2022-11-23T14:06:23.966Z,1.20
2022-11-23T14:08:56.594Z,1.40
2022-11-23T14:11:24.965Z,1.58
2022-11-23T14:13:55.941Z,1.45
2022-11-23T14:16:40.529Z,1.52
2022-11-23T14:19:19.004Z,1.65
2022-11-23T14:21:54.112Z,1.73
2022-11-23T14:24:38.213Z,1.23
2022-11-23T14:27:46.291Z,1.52
2022-11-23T14:30:22.562Z,1.73
2022-11-23T14:33:07.232Z,1.55
2022-11-23T14:35:44.989Z,1.15
2022-11-23T14:38:46.437Z,1.48
2022-11-23T14:41:18.224Z,1.60
2022-11-23T14:43:47.780Z,1.52
2022-11-23T14:46:19.392Z,1.70
2022-11-23T14:48:49.801Z,1.90
2022-11-23T14:51:19.348Z,1.50
2022-11-23T14:53:51.080Z,1.55
2022-11-23T14:56:36.009Z,1.42
2022-11-23T14:59:06.049Z,1.75
2022-11-23T15:01:34.829Z,1.42
2022-11-23T15:04:09.566Z,1.60
2022-11-23T15:06:45.307Z,1.25
2022-11-23T15:09:18.565Z,1.70
2022-11-23T15:11:52.791Z,1.60
2022-11-23T15:14:27.112Z,1.33
2022-11-23T15:16:54.989Z,1.33
2022-11-23T15:19:28.693Z,1.17
2022-11-23T15:21:57.898Z,1.70
2022-11-23T15:24:27.204Z,1.20
2022-11-23T15:27:10.890Z,1.52
2022-11-23T15:29:52.873Z,1.35
2022-11-23T15:32:32.066Z,1.80
2022-11-23T15:35:04.535Z,1.95
2022-11-23T15:37:34.530Z,1.90
2022-11-23T15:40:14.304Z,1.52
2022-11-23T15:42:44.762Z,1.50
2022-11-23T15:45:35.123Z,2.40
2022-11-23T15:48:03.491Z,1.50
2022-11-23T15:50:34.409Z,1.58
2022-11-23T15:53:02.506Z,1.98
2022-11-23T15:55:31.875Z,1.60
2022-11-23T15:58:07.553Z,2.17
2022-11-23T16:00:35.605Z,1.80
2022-11-23T16:03:28.375Z,1.77
2022-11-23T16:06:25.650Z,1.80
2022-11-23T16:08:55.122Z,2.53
2022-11-23T16:11:31.076Z,1.90
2022-11-23T16:14:18.085Z,2.53
2022-11-23T16:16:47.791Z,1.95
2022-11-23T16:19:26.620Z,1.83
2022-11-23T16:22:01.987Z,1.60
2022-11-23T16:24:31.595Z,1.67
2022-11-23T16:27:00.775Z,1.90
2022-11-23T16:29:37.036Z,2.08
2022-11-23T16:32:07.180Z,2.00
2022-11-23T16:34:36.553Z,2.03
2022-11-23T16:37:10.384Z,1.80
2022-11-23T16:39:38.085Z,1.73
2022-11-23T16:42:05.818Z,1.75
2022-11-23T16:44:40.138Z,1.98
2022-11-23T16:47:23.337Z,2.45
2022-11-23T16:49:51.484Z,1.70
2022-11-23T16:52:19.376Z,1.48
2022-11-23T16:54:46.932Z,1.55
2022-11-23T16:57:29.135Z,1.80
2022-11-23T17:00:04.608Z,2.20
2022-11-23T17:02:37.299Z,1.77
2022-11-23T17:05:07.848Z,1.45
2022-11-23T17:07:35.537Z,1.73
2022-11-23T17:10:05.259Z,1.80
2022-11-23T17:12:33.041Z,1.80
2022-11-23T17:15:02.012Z,1.70
2022-11-23T17:17:30.482Z,1.65
2022-11-23T17:20:03.662Z,1.70
2022-11-23T17:22:32.775Z,1.70
2022-11-23T17:25:03.137Z,1.45
2022-11-23T17:27:34.034Z,1.45
2022-11-23T17:30:03.867Z,1.90
2022-11-23T17:32:31.946Z,1.80
2022-11-23T17:35:00.577Z,2.22
2022-11-23T17:37:29.080Z,1.70
2022-11-23T17:39:56.873Z,1.60
2022-11-23T17:42:27.010Z,1.75
2022-11-23T17:44:56.476Z,1.30
2022-11-23T17:47:28.897Z,1.50
2022-11-23T17:49:56.841Z,1.55
2022-11-23T17:52:26.149Z,1.20
2022-11-23T17:54:54.377Z,1.20
2022-11-23T17:57:25.004Z,1.30
2022-11-23T17:59:54.496Z,1.50
2022-11-23T18:02:23.430Z,1.50
2022-11-23T18:04:52.983Z,1.50
2022-11-23T18:07:22.549Z,1.75
2022-11-23T18:09:52.390Z,1.00
2022-11-23T18:12:21.627Z,1.20
2022-11-23T18:14:50.025Z,1.20
2022-11-23T18:17:19.057Z,1.30
2022-11-23T18:19:46.646Z,1.40
2022-11-23T18:22:16.465Z,1.10
2022-11-23T18:24:45.762Z,0.80
2022-11-23T18:27:14.537Z,1.02
2022-11-23T18:29:43.043Z,1.15
2022-11-23T18:32:11.259Z,1.40
2022-11-23T18:34:39.514Z,0.93
2022-11-23T18:37:08.253Z,1.00
2022-11-23T18:39:37.933Z,0.90
2022-11-23T18:42:07.015Z,1.30
2022-11-23T18:44:36.227Z,1.00
2022-11-23T18:47:05.468Z,1.20
2022-11-23T18:49:33.266Z,1.30
2022-11-23T18:52:01.987Z,1.13
2022-11-23T18:54:30.629Z,1.70
2022-11-23T18:57:01.221Z,1.55
2022-11-23T18:59:56.309Z,1.15
2022-11-23T19:02:18.453Z,1.70
2022-11-23T19:04:46.188Z,1.50
2022-11-23T19:07:14.046Z,1.40
2022-11-23T19:09:43.505Z,1.77
2022-11-23T19:12:17.408Z,1.38
2022-11-23T19:15:49.603Z,1.30
2022-11-23T19:18:19.255Z,1.38
2022-11-23T19:20:48.935Z,0.90
2022-11-23T19:23:23.527Z,1.45
2022-11-23T19:26:57.961Z,1.35
2022-11-23T19:29:28.854Z,1.45
2022-11-23T19:31:56.713Z,1.50
2022-11-23T19:34:24.282Z,1.08
2022-11-23T19:36:51.841Z,1.30
2022-11-23T19:39:20.333Z,1.48
2022-11-23T19:41:48.216Z,1.10
2022-11-23T19:44:16.466Z,1.35
2022-11-23T19:46:45.544Z,1.38
2022-11-23T19:49:13.135Z,1.13
2022-11-23T19:51:41.643Z,1.30
2022-11-23T19:54:12.127Z,1.23
2022-11-23T19:56:40.025Z,1.50
2022-11-23T19:59:07.662Z,1.30
2022-11-23T20:01:36.184Z,1.40
2022-11-23T20:04:09.667Z,1.60
2022-11-23T20:06:42.422Z,1.10
2022-11-23T20:09:11.848Z,1.52
2022-11-23T20:11:50.680Z,1.58
2022-11-23T20:14:21.406Z,1.08
2022-11-23T20:16:49.154Z,1.23
2022-11-23T20:19:20.444Z,1.40
2022-11-23T20:21:48.150Z,1.00
2022-11-23T20:24:16.474Z,1.40
2022-11-23T20:26:46.102Z,1.10
2022-11-23T20:29:14.790Z,1.10
2022-11-23T20:31:44.717Z,1.50
2022-11-23T20:34:20.453Z,1.67
2022-11-23T20:36:50.330Z,1.60
2022-11-23T20:39:18.637Z,1.20
2022-11-23T20:41:52.063Z,1.40
2022-11-23T20:44:20.831Z,1.40
2022-11-23T20:47:01.665Z,1.35
2022-11-23T20:49:30.721Z,1.55
2022-11-23T20:51:59.693Z,1.60
2022-11-23T20:54:29.077Z,1.38
2022-11-23T20:56:59.764Z,1.20
2022-11-23T20:59:27.489Z,1.63
2022-11-23T21:01:56.287Z,1.43
2022-11-23T21:04:25.294Z,1.60
2022-11-23T21:06:53.490Z,1.45
2022-11-23T21:09:22.668Z,1.90
2022-11-23T21:12:11.448Z,1.42
2022-11-23T21:14:40.665Z,1.67
2022-11-23T21:17:08.444Z,1.50
2022-11-23T21:19:37.919Z,1.77
2022-11-23T21:22:08.469Z,1.67
2022-11-23T21:24:39.407Z,1.50
2022-11-23T21:27:09.782Z,1.77
2022-11-23T21:29:39.264Z,1.80
2022-11-23T21:32:08.935Z,1.80
2022-11-23T21:34:36.970Z,1.77
2022-11-23T21:37:04.998Z,1.67
2022-11-23T21:39:35.215Z,2.10
2022-11-23T21:42:06.555Z,2.00
2022-11-23T21:44:36.549Z,2.00
2022-11-23T21:47:04.404Z,2.22
2022-11-23T21:49:32.103Z,2.53
2022-11-23T21:52:00.612Z,1.98
2022-11-23T21:54:28.219Z,2.35
2022-11-23T21:56:57.987Z,3.25
2022-11-23T21:59:26.914Z,2.50
2022-11-23T22:01:58.545Z,2.42
2022-11-23T22:04:27.460Z,2.70
2022-11-23T22:06:55.617Z,3.28
2022-11-23T22:09:24.292Z,2.90
2022-11-23T22:11:54.554Z,3.15
2022-11-23T22:14:22.543Z,2.83
2022-11-23T22:16:53.596Z,3.05
2022-11-23T22:19:21.506Z,2.92
2022-11-23T22:21:50.609Z,2.40
2022-11-23T22:24:22.313Z,3.38
2022-11-23T22:26:52.222Z,2.67
2022-11-23T22:29:20.922Z,2.88
2022-11-23T22:31:50.835Z,3.17
2022-11-23T22:34:20.485Z,3.30
2022-11-23T22:36:51.571Z,3.08
2022-11-23T22:39:20.063Z,3.23
2022-11-23T22:41:51.888Z,3.40
2022-11-23T22:44:19.616Z,3.73
2022-11-23T22:46:47.221Z,2.90
2022-11-23T22:49:15.738Z,3.45
2022-11-23T22:51:50.122Z,3.13
2022-11-23T22:54:18.669Z,3.17
2022-11-23T22:56:52.298Z,3.63
2022-11-23T22:59:20.587Z,3.30
2022-11-23T23:01:50.773Z,3.50
2022-11-23T23:04:18.613Z,3.30
2022-11-23T23:06:50.851Z,3.40
2022-11-23T23:09:18.647Z,3.90
2022-11-23T23:11:47.090Z,3.60
2022-11-23T23:14:15.965Z,3.20
2022-11-23T23:16:44.159Z,3.67
2022-11-23T23:19:13.645Z,3.47
2022-11-23T23:21:42.290Z,3.45
2022-11-23T23:24:15.726Z,3.47
2022-11-23T23:26:43.180Z,4.05
2022-11-23T23:29:11.771Z,3.85
2022-11-23T23:31:40.145Z,4.13
2022-11-23T23:34:10.243Z,3.53
2022-11-23T23:36:40.913Z,4.72
2022-11-23T23:39:09.347Z,3.72
2022-11-23T23:42:40.292Z,3.75
2022-11-23T23:45:10.949Z,3.72
2022-11-23T23:47:40.493Z,3.50
2022-11-23T23:50:09.834Z,3.55
2022-11-23T23:52:38.265Z,3.78
2022-11-23T23:55:06.876Z,3.60
2022-11-23T23:57:35.114Z,4.15
